createdAt,value
2023-05-11T00:00:52.452Z,19.62
2023-05-11T00:03:20.116Z,18.79
2023-05-11T00:05:47.883Z,19.07
2023-05-11T00:08:17.173Z,19.13
2023-05-11T00:10:47.283Z,20.26
2023-05-11T00:13:14.506Z,20.22
2023-05-11T00:15:41.742Z,20.30
2023-05-11T00:18:09.275Z,19.88
2023-05-11T00:20:36.406Z,19.50
2023-05-11T00:23:03.537Z,19.73
2023-05-11T00:25:30.926Z,19.97
2023-05-11T00:27:58.136Z,20.08
2023-05-11T00:30:25.321Z,20.57
2023-05-11T00:32:52.839Z,20.10
2023-05-11T00:35:20.183Z,19.69
2023-05-11T00:37:47.444Z,19.62
2023-05-11T00:40:15.121Z,19.58
2023-05-11T00:42:42.309Z,19.35
2023-05-11T00:45:09.529Z,19.78
2023-05-11T00:47:37.683Z,20.00
2023-05-11T00:50:05.616Z,20.15
2023-05-11T00:52:32.812Z,19.72
2023-05-11T00:55:00.254Z,20.00
2023-05-11T00:57:27.460Z,19.84
2023-05-11T00:59:54.646Z,20.01
2023-05-11T01:02:22.169Z,19.91
2023-05-11T01:04:51.794Z,20.23
2023-05-11T01:07:39.300Z,20.00
2023-05-11T01:10:27.439Z,19.86
2023-05-11T01:12:54.574Z,19.67
2023-05-11T01:15:28.809Z,20.12
2023-05-11T01:18:06.575Z,20.33
2023-05-11T01:20:34.436Z,19.99
2023-05-11T01:23:07.708Z,20.34
2023-05-11T01:25:54.685Z,19.40
2023-05-11T01:28:40.242Z,20.56
2023-05-11T01:31:09.717Z,20.25
2023-05-11T01:33:37.679Z,20.07
2023-05-11T01:36:09.220Z,20.06
2023-05-11T01:38:37.754Z,20.31
2023-05-11T01:41:07.653Z,19.41
2023-05-11T01:43:34.900Z,18.80
2023-05-11T01:46:02.351Z,20.09
2023-05-11T01:48:30.721Z,20.02
2023-05-11T01:50:59.508Z,20.60
2023-05-11T01:53:27.988Z,20.29
2023-05-11T01:55:57.206Z,20.00
2023-05-11T01:58:24.398Z,20.29
2023-05-11T02:00:51.832Z,20.54
2023-05-11T02:03:19.355Z,20.85
2023-05-11T02:05:46.585Z,20.21
2023-05-11T02:08:13.794Z,20.15
2023-05-11T02:10:41.764Z,20.34
2023-05-11T02:13:10.036Z,20.55
2023-05-11T02:15:38.085Z,20.47
2023-05-11T02:18:06.413Z,20.39
2023-05-11T02:20:34.427Z,20.25
2023-05-11T02:23:02.381Z,20.54
2023-05-11T02:25:29.814Z,20.30
2023-05-11T02:27:57.076Z,20.12
2023-05-11T02:30:25.636Z,20.14
2023-05-11T02:32:56.543Z,20.17
2023-05-11T02:35:24.546Z,20.03
2023-05-11T02:37:54.377Z,20.00
2023-05-11T02:40:24.773Z,20.08
2023-05-11T02:42:53.729Z,19.31
2023-05-11T02:45:20.972Z,19.95
2023-05-11T02:47:52.989Z,20.48
2023-05-11T02:50:21.356Z,19.28
2023-05-11T02:52:48.911Z,19.69
2023-05-11T02:55:17.453Z,19.76
2023-05-11T02:57:45.027Z,19.41
2023-05-11T03:00:12.791Z,18.54
2023-05-11T03:02:40.322Z,18.42
2023-05-11T03:05:08.061Z,18.99
2023-05-11T03:07:35.290Z,19.00
2023-05-11T03:10:02.911Z,18.84
2023-05-11T03:12:33.890Z,18.93
2023-05-11T03:15:02.467Z,19.07
2023-05-11T03:17:30.056Z,19.18
2023-05-11T03:19:58.796Z,18.98
2023-05-11T03:22:25.940Z,18.18
2023-05-11T03:24:53.045Z,17.53
2023-05-11T03:27:20.469Z,18.61
2023-05-11T03:29:48.410Z,18.44
2023-05-11T03:32:15.749Z,17.95
2023-05-11T03:34:43.314Z,18.45
2023-05-11T03:37:12.991Z,19.09
2023-05-11T03:39:41.604Z,18.79
2023-05-11T03:42:09.095Z,19.00
2023-05-11T03:44:36.389Z,17.81
2023-05-11T03:47:04.174Z,17.94
2023-05-11T03:49:32.349Z,17.77
2023-05-11T03:51:59.537Z,17.22
2023-05-11T03:54:27.117Z,17.85
2023-05-11T03:56:55.871Z,17.21
2023-05-11T03:59:23.085Z,18.14
2023-05-11T04:01:53.999Z,17.55
2023-05-11T04:04:21.560Z,16.61
2023-05-11T04:06:48.783Z,17.51
2023-05-11T04:09:17.038Z,15.29
2023-05-11T04:11:44.573Z,15.69
2023-05-11T04:14:11.809Z,17.23
2023-05-11T04:16:39.274Z,17.56
2023-05-11T04:19:07.415Z,18.06
2023-05-11T04:21:36.067Z,17.90
2023-05-11T04:24:04.216Z,18.36
2023-05-11T04:26:31.912Z,18.41
2023-05-11T04:28:59.395Z,18.65
2023-05-11T04:31:26.945Z,19.16
2023-05-11T04:33:54.589Z,18.26
2023-05-11T04:36:22.432Z,19.13
2023-05-11T04:38:49.716Z,18.82
2023-05-11T04:41:17.215Z,19.01
2023-05-11T04:43:45.656Z,19.18
2023-05-11T04:46:13.595Z,19.26
2023-05-11T04:48:41.636Z,19.65
2023-05-11T04:51:08.984Z,19.63
2023-05-11T04:53:38.112Z,19.64
2023-05-11T04:56:05.833Z,18.99
2023-05-11T04:58:33.289Z,19.33
2023-05-11T05:01:00.845Z,18.83
2023-05-11T05:03:28.371Z,18.95
2023-05-11T05:05:55.680Z,18.78
2023-05-11T05:08:22.906Z,18.97
2023-05-11T05:10:50.333Z,18.77
2023-05-11T05:13:17.878Z,19.20
2023-05-11T05:15:45.122Z,19.57
2023-05-11T05:18:12.606Z,19.12
2023-05-11T05:20:39.875Z,18.86
2023-05-11T05:23:07.057Z,19.67
2023-05-11T05:25:34.673Z,19.01
2023-05-11T05:28:01.951Z,18.40
2023-05-11T05:30:29.283Z,18.44
2023-05-11T05:32:57.041Z,18.71
2023-05-11T05:35:25.645Z,19.04
2023-05-11T05:37:53.362Z,18.96
2023-05-11T05:40:21.852Z,17.86
2023-05-11T05:42:50.030Z,17.62
2023-05-11T05:45:17.526Z,18.44
2023-05-11T05:47:45.048Z,17.56
2023-05-11T05:50:12.489Z,17.64
2023-05-11T05:52:40.957Z,18.54
2023-05-11T05:55:08.682Z,19.53
2023-05-11T05:57:36.144Z,19.95
2023-05-11T06:00:04.019Z,18.16
2023-05-11T06:02:40.090Z,18.91
2023-05-11T06:05:08.374Z,18.70
2023-05-11T06:07:35.698Z,18.86
2023-05-11T06:10:02.977Z,18.00
2023-05-11T06:12:31.175Z,18.61
2023-05-11T06:14:58.653Z,18.90
2023-05-11T06:17:28.425Z,18.15
2023-05-11T06:19:57.100Z,18.73
2023-05-11T06:22:25.754Z,19.49
2023-05-11T06:24:52.955Z,19.89
2023-05-11T06:27:20.821Z,19.81
2023-05-11T06:29:48.987Z,19.80
2023-05-11T06:32:16.838Z,19.84
2023-05-11T06:34:44.626Z,19.26
2023-05-11T06:37:11.803Z,19.36
2023-05-11T06:39:39.053Z,19.51
2023-05-11T06:42:08.119Z,20.06
2023-05-11T06:44:35.434Z,19.37
2023-05-11T06:47:03.389Z,20.46
2023-05-11T06:49:31.042Z,20.74
2023-05-11T06:51:59.582Z,20.54
2023-05-11T06:54:26.831Z,20.88
2023-05-11T06:56:54.304Z,20.23
2023-05-11T06:59:21.466Z,21.53
2023-05-11T07:01:48.646Z,21.16
2023-05-11T07:04:16.265Z,20.89
2023-05-11T07:06:43.504Z,21.96
2023-05-11T07:09:10.652Z,22.19
2023-05-11T07:11:38.612Z,21.48
2023-05-11T07:14:05.962Z,21.33
2023-05-11T07:16:33.202Z,21.54
2023-05-11T07:19:00.757Z,20.88
2023-05-11T07:21:28.331Z,21.71
2023-05-11T07:23:55.604Z,22.32
2023-05-11T07:26:23.116Z,21.64
2023-05-11T07:28:50.756Z,22.85
2023-05-11T07:31:17.933Z,23.22
2023-05-11T07:33:45.430Z,23.41
2023-05-11T07:36:12.653Z,25.03
2023-05-11T07:38:39.844Z,24.79
2023-05-11T07:41:08.888Z,25.43
2023-05-11T07:43:37.365Z,26.28
2023-05-11T07:46:04.637Z,26.85
2023-05-11T07:48:32.129Z,26.24
2023-05-11T07:50:59.601Z,27.22
2023-05-11T07:53:26.897Z,27.39
2023-05-11T07:55:54.469Z,27.81
2023-05-11T07:58:21.686Z,28.17
2023-05-11T08:00:49.047Z,27.88
2023-05-11T08:03:16.744Z,27.45
2023-05-11T08:05:44.535Z,27.38
2023-05-11T08:08:11.780Z,27.80
2023-05-11T08:10:39.807Z,28.73
2023-05-11T08:13:06.976Z,29.02
2023-05-11T08:15:34.421Z,28.74
2023-05-11T08:18:03.044Z,29.05
2023-05-11T08:20:30.520Z,29.04
2023-05-11T08:22:57.959Z,30.28
2023-05-11T08:25:25.455Z,28.91
2023-05-11T08:27:52.756Z,28.70
2023-05-11T08:30:20.161Z,29.52
2023-05-11T08:32:58.001Z,29.37
2023-05-11T08:35:26.611Z,27.59
2023-05-11T08:37:54.038Z,27.71
2023-05-11T08:40:21.257Z,26.67
2023-05-11T08:42:48.482Z,26.56
2023-05-11T08:45:15.964Z,26.63
2023-05-11T08:47:43.286Z,26.15
2023-05-11T08:50:10.749Z,25.29
2023-05-11T08:52:38.312Z,26.21
2023-05-11T08:55:05.679Z,25.72
2023-05-11T08:57:32.843Z,26.29
2023-05-11T09:00:00.943Z,26.47
2023-05-11T09:02:29.476Z,26.87
2023-05-11T09:04:56.705Z,26.02
2023-05-11T09:07:24.222Z,26.25
2023-05-11T09:09:51.361Z,26.94
2023-05-11T09:12:18.637Z,26.52
2023-05-11T09:14:47.625Z,26.21
2023-05-11T09:17:14.983Z,26.48
2023-05-11T09:19:56.624Z,26.21
2023-05-11T09:22:43.921Z,27.68
2023-05-11T09:25:11.657Z,27.10
2023-05-11T09:27:43.181Z,27.07
2023-05-11T09:30:11.515Z,26.41
2023-05-11T09:32:58.267Z,26.28
2023-05-11T09:35:26.518Z,26.68
2023-05-11T09:37:57.494Z,26.43
2023-05-11T09:40:27.631Z,26.65
2023-05-11T09:43:01.333Z,25.40
2023-05-11T09:45:57.855Z,26.35
2023-05-11T09:48:29.547Z,25.93
2023-05-11T09:51:01.502Z,26.12
2023-05-11T09:53:39.696Z,26.19
2023-05-11T09:56:07.108Z,25.65
2023-05-11T09:58:54.500Z,25.95
2023-05-11T10:01:32.509Z,26.61
2023-05-11T10:04:17.688Z,26.27
2023-05-11T10:06:49.380Z,25.67
2023-05-11T10:09:17.302Z,26.19
2023-05-11T10:11:45.710Z,25.76
2023-05-11T10:14:13.516Z,25.40
2023-05-11T10:16:41.639Z,25.62
2023-05-11T10:19:09.059Z,25.10
2023-05-11T10:21:37.675Z,25.65
2023-05-11T10:24:05.314Z,26.11
2023-05-11T10:26:32.631Z,26.20
2023-05-11T10:29:00.678Z,26.04
2023-05-11T10:31:29.071Z,25.18
2023-05-11T10:33:57.413Z,24.93
2023-05-11T10:36:25.343Z,25.59
2023-05-11T10:38:52.829Z,25.70
2023-05-11T10:41:30.954Z,26.49
2023-05-11T10:44:19.278Z,27.16
2023-05-11T10:47:01.955Z,26.92
2023-05-11T10:49:29.519Z,26.53
2023-05-11T10:52:16.825Z,25.08
2023-05-11T10:54:59.691Z,25.68
2023-05-11T10:57:37.911Z,26.53
2023-05-11T11:00:30.980Z,26.99
2023-05-11T11:02:59.031Z,27.05
2023-05-11T11:05:33.624Z,27.18
2023-05-11T11:08:03.863Z,27.68
2023-05-11T11:10:31.831Z,28.27
2023-05-11T11:13:02.849Z,27.83
2023-05-11T11:15:48.747Z,27.11
2023-05-11T11:18:34.529Z,27.03
2023-05-11T11:21:01.719Z,26.74
2023-05-11T11:23:41.457Z,26.40
2023-05-11T11:26:10.105Z,25.88
2023-05-11T11:29:02.054Z,25.87
2023-05-11T11:31:30.673Z,26.85
2023-05-11T11:34:19.718Z,28.06
2023-05-11T11:36:56.408Z,27.38
2023-05-11T11:39:27.016Z,26.48
2023-05-11T11:42:03.873Z,26.46
2023-05-11T11:44:31.502Z,26.93
2023-05-11T11:47:14.680Z,27.80
2023-05-11T11:49:43.002Z,27.94
2023-05-11T11:52:36.528Z,28.41
2023-05-11T11:55:04.166Z,28.71
2023-05-11T11:57:34.470Z,27.28
2023-05-11T12:00:05.487Z,27.45
2023-05-11T12:02:42.530Z,27.45
2023-05-11T12:05:10.593Z,28.21
2023-05-11T12:07:38.077Z,28.42
2023-05-11T12:10:05.372Z,27.97
2023-05-11T12:12:32.835Z,27.54
2023-05-11T12:15:02.278Z,27.92
2023-05-11T12:17:30.018Z,27.87
2023-05-11T12:20:14.390Z,27.88
2023-05-11T12:22:42.046Z,27.54
2023-05-11T12:25:11.424Z,28.13
2023-05-11T12:27:48.561Z,27.79
2023-05-11T12:30:19.733Z,28.06
2023-05-11T12:32:46.978Z,27.98
2023-05-11T12:35:16.485Z,28.11
2023-05-11T12:37:44.916Z,28.79
2023-05-11T12:40:12.571Z,28.61
2023-05-11T12:42:39.786Z,28.12
2023-05-11T12:45:07.455Z,27.09
2023-05-11T12:47:35.649Z,26.75
2023-05-11T12:50:03.477Z,26.99
2023-05-11T12:52:30.971Z,26.40
2023-05-11T12:55:01.226Z,26.19
2023-05-11T12:57:29.121Z,26.40
2023-05-11T13:00:08.727Z,26.60
2023-05-11T13:02:36.249Z,27.24
2023-05-11T13:05:10.954Z,26.54
2023-05-11T13:07:38.158Z,26.54
2023-05-11T13:10:06.086Z,26.29
2023-05-11T13:12:34.505Z,27.29
2023-05-11T13:15:08.711Z,27.18
2023-05-11T13:17:37.156Z,27.13
2023-05-11T13:20:15.672Z,26.39
2023-05-11T13:22:43.578Z,26.90
2023-05-11T13:25:10.769Z,26.68
2023-05-11T13:27:38.032Z,27.44
2023-05-11T13:30:06.422Z,26.00
2023-05-11T13:32:33.888Z,25.66
2023-05-11T13:35:02.722Z,26.74
2023-05-11T13:37:30.446Z,25.53
2023-05-11T13:39:57.953Z,26.16
2023-05-11T13:42:25.296Z,25.98
2023-05-11T13:44:52.797Z,26.88
2023-05-11T13:47:20.337Z,26.47
2023-05-11T13:49:47.585Z,27.09
2023-05-11T13:52:15.551Z,26.01
2023-05-11T13:54:42.774Z,27.06
2023-05-11T13:57:10.160Z,26.69
2023-05-11T13:59:37.820Z,26.09
2023-05-11T14:02:05.091Z,26.86
2023-05-11T14:04:32.577Z,26.42
2023-05-11T14:06:59.788Z,26.53
2023-05-11T14:09:27.085Z,25.50
2023-05-11T14:11:54.555Z,25.60
2023-05-11T14:14:21.684Z,25.61
2023-05-11T14:16:49.198Z,25.84
2023-05-11T14:19:16.958Z,25.63
2023-05-11T14:21:44.322Z,25.53
2023-05-11T14:24:12.800Z,25.57
2023-05-11T14:26:40.779Z,26.20
2023-05-11T14:29:08.188Z,25.07
2023-05-11T14:31:36.624Z,25.29
2023-05-11T14:34:04.244Z,24.83
2023-05-11T14:36:32.074Z,25.06
2023-05-11T14:38:59.431Z,25.14
2023-05-11T14:41:27.012Z,25.47
2023-05-11T14:43:54.202Z,25.25
2023-05-11T14:46:21.746Z,24.72
2023-05-11T14:48:49.270Z,24.98
2023-05-11T14:51:16.451Z,24.03
2023-05-11T14:53:43.585Z,24.58
2023-05-11T14:56:11.143Z,25.56
2023-05-11T14:58:38.291Z,25.03
2023-05-11T15:01:05.467Z,25.00
2023-05-11T15:03:33.013Z,25.20
2023-05-11T15:06:00.236Z,26.08
2023-05-11T15:08:30.427Z,25.38
2023-05-11T15:10:58.316Z,25.93
2023-05-11T15:13:25.582Z,24.41
2023-05-11T15:15:52.757Z,24.10
2023-05-11T15:18:20.373Z,25.09
2023-05-11T15:20:47.802Z,24.58
2023-05-11T15:23:16.942Z,24.13
2023-05-11T15:25:45.080Z,24.39
2023-05-11T15:28:12.705Z,25.57
2023-05-11T15:30:41.716Z,26.30
2023-05-11T15:33:10.099Z,26.62
2023-05-11T15:35:37.694Z,25.78
2023-05-11T15:38:04.997Z,25.31
2023-05-11T15:40:32.605Z,24.67
2023-05-11T15:43:00.587Z,25.83
2023-05-11T15:45:28.883Z,25.71
2023-05-11T15:47:57.394Z,25.58
2023-05-11T15:50:25.576Z,24.95
2023-05-11T15:52:52.945Z,25.77
2023-05-11T15:55:20.644Z,25.45
2023-05-11T15:57:48.195Z,24.84
2023-05-11T16:00:16.047Z,25.48
2023-05-11T16:02:45.849Z,24.58
2023-05-11T16:05:13.398Z,25.66
2023-05-11T16:07:40.791Z,25.18
2023-05-11T16:10:08.902Z,24.75
2023-05-11T16:12:36.330Z,22.66
2023-05-11T16:15:04.004Z,22.40
2023-05-11T16:17:31.764Z,21.23
2023-05-11T16:20:00.361Z,20.24
2023-05-11T16:22:28.130Z,19.95
2023-05-11T16:24:55.709Z,19.56
2023-05-11T16:27:23.058Z,19.88
2023-05-11T16:29:50.137Z,19.96
2023-05-11T16:32:18.620Z,19.74
2023-05-11T16:34:46.471Z,19.25
2023-05-11T16:37:13.719Z,19.32
2023-05-11T16:39:41.397Z,19.62
2023-05-11T16:42:08.670Z,19.76
2023-05-11T16:44:36.041Z,18.95
2023-05-11T16:47:03.744Z,18.73
2023-05-11T16:49:30.949Z,18.82
2023-05-11T16:51:58.275Z,18.61
2023-05-11T16:54:26.417Z,18.15
2023-05-11T16:56:53.792Z,17.86
2023-05-11T16:59:20.982Z,18.13
2023-05-11T17:01:49.411Z,18.73
2023-05-11T17:04:17.142Z,18.59
2023-05-11T17:06:44.426Z,18.14
2023-05-11T17:09:12.658Z,17.88
2023-05-11T17:11:39.953Z,17.76
2023-05-11T17:14:07.104Z,17.96
2023-05-11T17:16:34.725Z,17.97
2023-05-11T17:19:02.060Z,17.91
2023-05-11T17:21:29.281Z,19.89
2023-05-11T17:23:56.890Z,19.59
2023-05-11T17:26:27.509Z,19.49
2023-05-11T17:29:00.251Z,20.32
2023-05-11T17:31:27.529Z,21.38
2023-05-11T17:33:55.020Z,19.88
2023-05-11T17:36:22.855Z,20.07
2023-05-11T17:38:51.389Z,20.61
2023-05-11T17:41:18.583Z,21.59
2023-05-11T17:43:47.662Z,20.61
2023-05-11T17:46:16.208Z,19.01
2023-05-11T17:48:43.376Z,18.18
2023-05-11T17:51:10.854Z,17.71
2023-05-11T17:53:38.373Z,18.48
2023-05-11T17:56:08.016Z,18.72
2023-05-11T17:58:35.510Z,17.90
2023-05-11T18:01:16.031Z,16.89
2023-05-11T18:03:44.148Z,16.71
2023-05-11T18:06:11.665Z,16.83
2023-05-11T18:08:39.049Z,16.40
2023-05-11T18:11:07.697Z,16.14
2023-05-11T18:13:35.678Z,16.09
2023-05-11T18:16:03.719Z,15.60
2023-05-11T18:18:32.066Z,15.68
2023-05-11T18:21:04.327Z,15.39
2023-05-11T18:23:32.418Z,15.84
2023-05-11T18:26:00.005Z,15.16
2023-05-11T18:28:27.624Z,15.89
2023-05-11T18:30:55.480Z,15.39
2023-05-11T18:33:24.219Z,15.14
2023-05-11T18:35:51.739Z,15.04
2023-05-11T18:38:19.206Z,14.85
2023-05-11T18:40:46.501Z,14.74
2023-05-11T18:43:14.113Z,15.23
2023-05-11T18:45:41.605Z,14.90
2023-05-11T18:48:08.926Z,14.87
2023-05-11T18:50:36.550Z,14.90
2023-05-11T18:53:04.282Z,15.66
2023-05-11T18:55:38.505Z,16.28
2023-05-11T18:58:13.116Z,15.04
2023-05-11T19:00:40.755Z,15.97
2023-05-11T19:03:08.199Z,17.57
2023-05-11T19:05:35.763Z,15.08
2023-05-11T19:08:03.673Z,14.63
2023-05-11T19:10:30.928Z,14.15
2023-05-11T19:12:59.786Z,14.91
2023-05-11T19:15:27.218Z,16.34
2023-05-11T19:17:54.529Z,14.65
2023-05-11T19:20:22.051Z,15.57
2023-05-11T19:22:49.596Z,16.38
2023-05-11T19:25:17.626Z,17.17
2023-05-11T19:27:46.366Z,16.26
2023-05-11T19:30:13.721Z,17.00
2023-05-11T19:32:42.439Z,17.42
2023-05-11T19:35:12.906Z,15.13
2023-05-11T19:37:40.463Z,16.96
2023-05-11T19:40:37.941Z,18.23
2023-05-11T19:42:56.005Z,18.49
2023-05-11T19:45:23.919Z,18.54
2023-05-11T19:47:51.582Z,20.32
2023-05-11T19:50:21.806Z,19.74
2023-05-11T19:52:50.823Z,20.58
2023-05-11T19:55:18.161Z,21.27
2023-05-11T19:57:45.764Z,20.23
2023-05-11T20:00:13.067Z,21.32
2023-05-11T20:02:41.006Z,20.53
2023-05-11T20:05:08.397Z,19.72
2023-05-11T20:07:35.670Z,20.53
2023-05-11T20:10:03.435Z,19.98
2023-05-11T20:12:31.337Z,19.98
2023-05-11T20:14:58.504Z,21.17
2023-05-11T20:17:26.035Z,20.30
2023-05-11T20:19:53.236Z,20.23
2023-05-11T20:22:22.564Z,18.71
2023-05-11T20:24:50.486Z,20.06
2023-05-11T20:27:17.620Z,18.96
2023-05-11T20:29:44.834Z,20.22
2023-05-11T20:32:12.555Z,20.40
2023-05-11T20:34:39.730Z,19.16
2023-05-11T20:37:07.415Z,19.86
2023-05-11T20:39:34.881Z,20.58
2023-05-11T20:42:04.126Z,20.58
2023-05-11T20:44:31.258Z,20.30
2023-05-11T20:46:58.794Z,20.56
2023-05-11T20:49:38.042Z,20.03
2023-05-11T20:52:06.818Z,19.97
2023-05-11T20:54:35.100Z,20.43
2023-05-11T20:57:02.676Z,18.72
2023-05-11T21:02:01.932Z,19.31
2023-05-11T21:04:31.497Z,19.34
2023-05-11T21:06:58.761Z,20.18
2023-05-11T21:09:26.058Z,20.16
2023-05-11T21:11:53.509Z,20.09
2023-05-11T21:14:20.660Z,19.81
2023-05-11T21:16:48.074Z,19.86
2023-05-11T21:19:18.606Z,19.87
2023-05-11T21:21:47.072Z,18.85
2023-05-11T21:24:16.564Z,19.45
2023-05-11T21:26:48.036Z,19.14
2023-05-11T21:29:15.373Z,16.41
2023-05-11T21:31:42.537Z,18.44
2023-05-11T21:34:10.030Z,19.26
2023-05-11T21:36:38.893Z,19.52
2023-05-11T21:39:06.168Z,15.96
2023-05-11T21:41:33.644Z,17.91
2023-05-11T21:44:00.810Z,18.97
2023-05-11T21:46:28.008Z,18.99
2023-05-11T21:48:55.537Z,19.03
2023-05-11T21:51:22.762Z,18.54
2023-05-11T21:53:50.288Z,19.52
2023-05-11T21:56:17.754Z,19.20
2023-05-11T21:58:44.915Z,19.40
2023-05-11T22:01:12.341Z,18.67
2023-05-11T22:03:39.838Z,20.14
2023-05-11T22:06:07.097Z,20.03
2023-05-11T22:08:34.377Z,19.84
2023-05-11T22:11:02.376Z,20.10
2023-05-11T22:13:29.609Z,19.65
2023-05-11T22:15:56.806Z,19.90
2023-05-11T22:18:24.517Z,20.09
2023-05-11T22:20:51.743Z,19.56
2023-05-11T22:23:18.899Z,19.12
2023-05-11T22:25:46.401Z,19.35
2023-05-11T22:28:13.532Z,19.45
2023-05-11T22:30:40.818Z,19.12
2023-05-11T22:33:08.284Z,19.58
2023-05-11T22:35:35.552Z,19.16
2023-05-11T22:38:02.787Z,19.66
2023-05-11T22:40:30.205Z,20.09
2023-05-11T22:42:57.348Z,20.06
2023-05-11T22:45:24.503Z,20.03
2023-05-11T22:47:52.008Z,19.64
2023-05-11T22:50:19.382Z,19.44
2023-05-11T22:52:47.358Z,19.46
2023-05-11T22:55:14.784Z,19.35
2023-05-11T22:57:41.969Z,18.85
2023-05-11T23:00:12.681Z,19.02
2023-05-11T23:02:40.272Z,19.86
2023-05-11T23:05:07.946Z,19.28
2023-05-11T23:07:35.307Z,19.17
2023-05-11T23:10:02.704Z,18.94
2023-05-11T23:12:30.118Z,18.72
2023-05-11T23:14:57.371Z,18.83
2023-05-11T23:17:24.927Z,19.13
2023-05-11T23:19:52.155Z,19.53
2023-05-11T23:22:19.319Z,19.15
2023-05-11T23:24:46.800Z,19.22
2023-05-11T23:27:14.356Z,19.63
2023-05-11T23:29:41.524Z,20.39
2023-05-11T23:32:09.320Z,18.78
2023-05-11T23:34:38.030Z,18.52
2023-05-11T23:37:05.262Z,19.26
2023-05-11T23:39:32.761Z,18.85
2023-05-11T23:42:00.801Z,18.70
2023-05-11T23:44:29.006Z,18.80
2023-05-11T23:46:56.646Z,18.77
2023-05-11T23:49:23.911Z,18.40
2023-05-11T23:51:51.045Z,18.56
2023-05-11T23:54:18.568Z,18.24
2023-05-11T23:56:46.745Z,18.18
2023-05-11T23:59:13.929Z,18.46
